sensor_id;sensor_type;location;lat;lon;timestamp;P1;durP1;ratioP1;P2;durP2;ratioP2
58752;SDS011;44525;46.052;13.610;2022-08-19T00:01:51;11.68;;;4.70;;
58752;SDS011;44525;46.052;13.610;2022-08-19T00:04:20;9.93;;;4.60;;
58752;SDS011;44525;46.052;13.610;2022-08-19T00:06:51;9.82;;;4.45;;
58752;SDS011;44525;46.052;13.610;2022-08-19T00:09:18;8.32;;;4.43;;
58752;SDS011;44525;46.052;13.610;2022-08-19T00:11:45;9.95;;;4.13;;
58752;SDS011;44525;46.052;13.610;2022-08-19T00:14:11;14.93;;;4.72;;
58752;SDS011;44525;46.052;13.610;2022-08-19T00:16:39;11.70;;;4.20;;
58752;SDS011;44525;46.052;13.610;2022-08-19T00:19:06;11.32;;;4.03;;
58752;SDS011;44525;46.052;13.610;2022-08-19T00:21:32;7.18;;;4.03;;
58752;SDS011;44525;46.052;13.610;2022-08-19T00:24:03;11.05;;;4.57;;
58752;SDS011;44525;46.052;13.610;2022-08-19T00:26:29;8.98;;;4.03;;
58752;SDS011;44525;46.052;13.610;2022-08-19T00:28:54;10.85;;;4.30;;
58752;SDS011;44525;46.052;13.610;2022-08-19T00:31:20;12.23;;;4.32;;
58752;SDS011;44525;46.052;13.610;2022-08-19T00:33:46;11.27;;;4.65;;
58752;SDS011;44525;46.052;13.610;2022-08-19T00:36:14;9.02;;;4.00;;
58752;SDS011;44525;46.052;13.610;2022-08-19T00:38:40;10.68;;;4.38;;
58752;SDS011;44525;46.052;13.610;2022-08-19T00:41:09;9.18;;;4.38;;
58752;SDS011;44525;46.052;13.610;2022-08-19T00:43:39;8.45;;;4.07;;
58752;SDS011;44525;46.052;13.610;2022-08-19T00:46:06;10.48;;;4.45;;
58752;SDS011;44525;46.052;13.610;2022-08-19T00:48:32;11.77;;;4.65;;
58752;SDS011;44525;46.052;13.610;2022-08-19T00:50:59;11.73;;;4.50;;
58752;SDS011;44525;46.052;13.610;2022-08-19T00:53:26;9.02;;;5.05;;
58752;SDS011;44525;46.052;13.610;2022-08-19T00:55:55;10.40;;;4.72;;
58752;SDS011;44525;46.052;13.610;2022-08-19T00:58:24;12.68;;;4.75;;
58752;SDS011;44525;46.052;13.610;2022-08-19T01:00:54;8.35;;;4.93;;
58752;SDS011;44525;46.052;13.610;2022-08-19T01:03:20;9.30;;;4.32;;
58752;SDS011;44525;46.052;13.610;2022-08-19T01:05:47;8.52;;;4.07;;
58752;SDS011;44525;46.052;13.610;2022-08-19T01:08:15;13.35;;;4.55;;
58752;SDS011;44525;46.052;13.610;2022-08-19T01:11:15;17.63;;;4.78;;
58752;SDS011;44525;46.052;13.610;2022-08-19T01:13:34;10.07;;;4.65;;
58752;SDS011;44525;46.052;13.610;2022-08-19T01:16:05;12.75;;;4.47;;
58752;SDS011;44525;46.052;13.610;2022-08-19T01:18:32;9.80;;;5.25;;
58752;SDS011;44525;46.052;13.610;2022-08-19T01:21:05;9.25;;;4.80;;
58752;SDS011;44525;46.052;13.610;2022-08-19T01:23:35;12.00;;;4.68;;
58752;SDS011;44525;46.052;13.610;2022-08-19T01:26:18;9.63;;;5.05;;
58752;SDS011;44525;46.052;13.610;2022-08-19T01:28:46;15.13;;;4.85;;
58752;SDS011;44525;46.052;13.610;2022-08-19T01:31:17;8.35;;;4.90;;
58752;SDS011;44525;46.052;13.610;2022-08-19T01:33:46;16.27;;;4.72;;
58752;SDS011;44525;46.052;13.610;2022-08-19T01:36:13;8.88;;;4.60;;
58752;SDS011;44525;46.052;13.610;2022-08-19T01:38:51;8.63;;;4.40;;
58752;SDS011;44525;46.052;13.610;2022-08-19T01:41:17;8.63;;;4.63;;
58752;SDS011;44525;46.052;13.610;2022-08-19T01:43:43;10.57;;;4.80;;
58752;SDS011;44525;46.052;13.610;2022-08-19T01:46:09;10.80;;;4.53;;
58752;SDS011;44525;46.052;13.610;2022-08-19T01:48:36;11.40;;;4.90;;
58752;SDS011;44525;46.052;13.610;2022-08-19T01:51:05;12.88;;;4.78;;
58752;SDS011;44525;46.052;13.610;2022-08-19T01:53:31;14.85;;;5.30;;
58752;SDS011;44525;46.052;13.610;2022-08-19T01:55:57;16.98;;;5.80;;
58752;SDS011;44525;46.052;13.610;2022-08-19T01:58:24;11.85;;;5.13;;
58752;SDS011;44525;46.052;13.610;2022-08-19T02:00:57;13.48;;;5.18;;
58752;SDS011;44525;46.052;13.610;2022-08-19T02:03:23;10.50;;;4.68;;
58752;SDS011;44525;46.052;13.610;2022-08-19T02:05:53;11.77;;;5.10;;
58752;SDS011;44525;46.052;13.610;2022-08-19T02:08:21;13.75;;;5.32;;
58752;SDS011;44525;46.052;13.610;2022-08-19T02:10:47;12.40;;;5.05;;
58752;SDS011;44525;46.052;13.610;2022-08-19T02:13:13;11.20;;;5.32;;
58752;SDS011;44525;46.052;13.610;2022-08-19T02:15:39;11.93;;;5.18;;
58752;SDS011;44525;46.052;13.610;2022-08-19T02:18:05;9.93;;;4.95;;
58752;SDS011;44525;46.052;13.610;2022-08-19T02:20:31;16.85;;;5.70;;
58752;SDS011;44525;46.052;13.610;2022-08-19T02:22:56;12.02;;;5.45;;
58752;SDS011;44525;46.052;13.610;2022-08-19T02:25:22;16.70;;;5.70;;
58752;SDS011;44525;46.052;13.610;2022-08-19T02:27:47;12.20;;;5.60;;
58752;SDS011;44525;46.052;13.610;2022-08-19T02:30:14;16.55;;;5.80;;
58752;SDS011;44525;46.052;13.610;2022-08-19T02:32:41;15.93;;;6.05;;
58752;SDS011;44525;46.052;13.610;2022-08-19T02:35:07;15.00;;;5.63;;
58752;SDS011;44525;46.052;13.610;2022-08-19T02:37:33;12.90;;;5.18;;
58752;SDS011;44525;46.052;13.610;2022-08-19T02:40:17;13.63;;;5.75;;
58752;SDS011;44525;46.052;13.610;2022-08-19T02:42:44;11.57;;;5.40;;
58752;SDS011;44525;46.052;13.610;2022-08-19T02:45:11;8.95;;;5.50;;
58752;SDS011;44525;46.052;13.610;2022-08-19T02:47:37;9.82;;;5.35;;
58752;SDS011;44525;46.052;13.610;2022-08-19T02:50:03;15.27;;;5.57;;
58752;SDS011;44525;46.052;13.610;2022-08-19T02:52:29;10.80;;;5.18;;
58752;SDS011;44525;46.052;13.610;2022-08-19T02:54:57;10.40;;;5.25;;
58752;SDS011;44525;46.052;13.610;2022-08-19T02:57:23;17.52;;;5.53;;
58752;SDS011;44525;46.052;13.610;2022-08-19T02:59:49;10.82;;;4.95;;
58752;SDS011;44525;46.052;13.610;2022-08-19T03:02:15;12.13;;;5.00;;
58752;SDS011;44525;46.052;13.610;2022-08-19T03:04:41;10.88;;;4.85;;
58752;SDS011;44525;46.052;13.610;2022-08-19T03:07:07;13.38;;;5.07;;
58752;SDS011;44525;46.052;13.610;2022-08-19T03:09:36;9.43;;;4.75;;
58752;SDS011;44525;46.052;13.610;2022-08-19T03:12:02;15.20;;;4.85;;
58752;SDS011;44525;46.052;13.610;2022-08-19T03:14:31;13.25;;;4.53;;
58752;SDS011;44525;46.052;13.610;2022-08-19T03:16:57;14.25;;;5.10;;
58752;SDS011;44525;46.052;13.610;2022-08-19T03:19:23;11.48;;;4.60;;
58752;SDS011;44525;46.052;13.610;2022-08-19T03:21:48;11.80;;;4.78;;
58752;SDS011;44525;46.052;13.610;2022-08-19T03:24:15;11.15;;;5.45;;
58752;SDS011;44525;46.052;13.610;2022-08-19T03:26:43;13.48;;;4.85;;
58752;SDS011;44525;46.052;13.610;2022-08-19T03:29:12;11.40;;;5.20;;
58752;SDS011;44525;46.052;13.610;2022-08-19T03:31:39;9.80;;;5.15;;
58752;SDS011;44525;46.052;13.610;2022-08-19T03:34:08;14.80;;;5.32;;
58752;SDS011;44525;46.052;13.610;2022-08-19T03:36:36;13.52;;;5.10;;
58752;SDS011;44525;46.052;13.610;2022-08-19T03:39:03;11.43;;;4.63;;
58752;SDS011;44525;46.052;13.610;2022-08-19T03:41:31;10.23;;;4.78;;
58752;SDS011;44525;46.052;13.610;2022-08-19T03:43:58;9.38;;;4.55;;
58752;SDS011;44525;46.052;13.610;2022-08-19T03:46:25;11.38;;;5.03;;
58752;SDS011;44525;46.052;13.610;2022-08-19T03:48:54;11.38;;;4.75;;
58752;SDS011;44525;46.052;13.610;2022-08-19T03:51:22;10.73;;;4.90;;
58752;SDS011;44525;46.052;13.610;2022-08-19T03:53:50;12.13;;;4.80;;
58752;SDS011;44525;46.052;13.610;2022-08-19T03:56:16;13.65;;;5.78;;
58752;SDS011;44525;46.052;13.610;2022-08-19T03:58:42;10.40;;;5.13;;
58752;SDS011;44525;46.052;13.610;2022-08-19T04:01:09;11.27;;;4.90;;
58752;SDS011;44525;46.052;13.610;2022-08-19T04:03:42;12.90;;;5.00;;
58752;SDS011;44525;46.052;13.610;2022-08-19T04:06:18;10.52;;;4.72;;
58752;SDS011;44525;46.052;13.610;2022-08-19T04:08:50;12.98;;;4.97;;
58752;SDS011;44525;46.052;13.610;2022-08-19T04:11:20;8.05;;;4.30;;
58752;SDS011;44525;46.052;13.610;2022-08-19T04:13:47;9.85;;;5.03;;
58752;SDS011;44525;46.052;13.610;2022-08-19T04:16:14;11.90;;;5.00;;
58752;SDS011;44525;46.052;13.610;2022-08-19T04:18:40;9.63;;;4.97;;
58752;SDS011;44525;46.052;13.610;2022-08-19T04:21:06;10.32;;;4.82;;
58752;SDS011;44525;46.052;13.610;2022-08-19T04:23:33;10.15;;;4.55;;
58752;SDS011;44525;46.052;13.610;2022-08-19T04:26:02;11.52;;;5.03;;
58752;SDS011;44525;46.052;13.610;2022-08-19T04:28:28;9.10;;;4.82;;
58752;SDS011;44525;46.052;13.610;2022-08-19T04:30:54;12.05;;;5.05;;
58752;SDS011;44525;46.052;13.610;2022-08-19T04:33:21;13.43;;;5.10;;
58752;SDS011;44525;46.052;13.610;2022-08-19T04:35:49;11.23;;;4.80;;
58752;SDS011;44525;46.052;13.610;2022-08-19T04:38:17;10.02;;;3.92;;
58752;SDS011;44525;46.052;13.610;2022-08-19T04:40:46;9.30;;;4.65;;
58752;SDS011;44525;46.052;13.610;2022-08-19T04:43:32;9.38;;;4.32;;
58752;SDS011;44525;46.052;13.610;2022-08-19T04:46:08;9.98;;;4.28;;
58752;SDS011;44525;46.052;13.610;2022-08-19T04:48:35;10.55;;;4.05;;
58752;SDS011;44525;46.052;13.610;2022-08-19T04:51:05;9.35;;;4.47;;
58752;SDS011;44525;46.052;13.610;2022-08-19T04:53:33;11.68;;;4.55;;
58752;SDS011;44525;46.052;13.610;2022-08-19T04:56:03;7.10;;;3.80;;
58752;SDS011;44525;46.052;13.610;2022-08-19T04:58:34;7.13;;;3.72;;
58752;SDS011;44525;46.052;13.610;2022-08-19T05:01:00;12.20;;;4.13;;
58752;SDS011;44525;46.052;13.610;2022-08-19T05:03:26;6.80;;;3.50;;
58752;SDS011;44525;46.052;13.610;2022-08-19T05:05:51;9.90;;;4.05;;
58752;SDS011;44525;46.052;13.610;2022-08-19T05:08:18;8.57;;;3.85;;
58752;SDS011;44525;46.052;13.610;2022-08-19T05:10:46;10.75;;;4.32;;
58752;SDS011;44525;46.052;13.610;2022-08-19T05:13:14;8.98;;;4.10;;
58752;SDS011;44525;46.052;13.610;2022-08-19T05:15:41;11.18;;;4.15;;
58752;SDS011;44525;46.052;13.610;2022-08-19T05:18:07;9.75;;;3.50;;
58752;SDS011;44525;46.052;13.610;2022-08-19T05:20:51;11.13;;;3.63;;
58752;SDS011;44525;46.052;13.610;2022-08-19T05:23:35;4.28;;;2.75;;
58752;SDS011;44525;46.052;13.610;2022-08-19T05:26:01;10.00;;;3.30;;
58752;SDS011;44525;46.052;13.610;2022-08-19T05:28:26;9.07;;;3.78;;
58752;SDS011;44525;46.052;13.610;2022-08-19T05:30:52;9.85;;;3.20;;
58752;SDS011;44525;46.052;13.610;2022-08-19T05:33:20;5.60;;;3.10;;
58752;SDS011;44525;46.052;13.610;2022-08-19T05:35:47;5.95;;;2.67;;
58752;SDS011;44525;46.052;13.610;2022-08-19T05:38:14;6.85;;;3.00;;
58752;SDS011;44525;46.052;13.610;2022-08-19T05:40:41;7.95;;;3.15;;
58752;SDS011;44525;46.052;13.610;2022-08-19T05:43:13;6.53;;;3.08;;
58752;SDS011;44525;46.052;13.610;2022-08-19T05:45:41;5.60;;;3.03;;
58752;SDS011;44525;46.052;13.610;2022-08-19T05:48:09;6.90;;;2.58;;
58752;SDS011;44525;46.052;13.610;2022-08-19T05:50:39;7.63;;;2.80;;
58752;SDS011;44525;46.052;13.610;2022-08-19T05:53:07;6.80;;;3.03;;
58752;SDS011;44525;46.052;13.610;2022-08-19T05:55:34;5.72;;;2.80;;
58752;SDS011;44525;46.052;13.610;2022-08-19T05:57:59;8.63;;;2.95;;
58752;SDS011;44525;46.052;13.610;2022-08-19T06:00:26;5.60;;;2.55;;
58752;SDS011;44525;46.052;13.610;2022-08-19T06:02:52;5.43;;;2.97;;
58752;SDS011;44525;46.052;13.610;2022-08-19T06:05:20;6.15;;;2.72;;
58752;SDS011;44525;46.052;13.610;2022-08-19T06:07:46;6.68;;;2.50;;
58752;SDS011;44525;46.052;13.610;2022-08-19T06:10:12;5.13;;;2.55;;
58752;SDS011;44525;46.052;13.610;2022-08-19T06:12:37;4.65;;;2.60;;
58752;SDS011;44525;46.052;13.610;2022-08-19T06:15:07;5.15;;;2.33;;
58752;SDS011;44525;46.052;13.610;2022-08-19T06:17:35;6.85;;;2.40;;
58752;SDS011;44525;46.052;13.610;2022-08-19T06:20:05;3.17;;;2.22;;
58752;SDS011;44525;46.052;13.610;2022-08-19T06:22:51;4.75;;;2.38;;
58752;SDS011;44525;46.052;13.610;2022-08-19T06:25:17;5.13;;;2.40;;
58752;SDS011;44525;46.052;13.610;2022-08-19T06:27:43;2.70;;;2.05;;
58752;SDS011;44525;46.052;13.610;2022-08-19T06:30:09;4.45;;;2.05;;
58752;SDS011;44525;46.052;13.610;2022-08-19T06:32:36;2.95;;;1.83;;
58752;SDS011;44525;46.052;13.610;2022-08-19T06:35:01;3.25;;;2.13;;
58752;SDS011;44525;46.052;13.610;2022-08-19T06:37:27;4.30;;;1.95;;
58752;SDS011;44525;46.052;13.610;2022-08-19T06:39:53;5.35;;;2.60;;
58752;SDS011;44525;46.052;13.610;2022-08-19T06:42:18;4.47;;;2.58;;
58752;SDS011;44525;46.052;13.610;2022-08-19T06:44:45;3.90;;;2.08;;
58752;SDS011;44525;46.052;13.610;2022-08-19T06:47:15;4.30;;;2.40;;
58752;SDS011;44525;46.052;13.610;2022-08-19T06:49:45;4.20;;;2.20;;
58752;SDS011;44525;46.052;13.610;2022-08-19T06:52:10;3.75;;;2.22;;
58752;SDS011;44525;46.052;13.610;2022-08-19T06:54:37;5.32;;;2.20;;
58752;SDS011;44525;46.052;13.610;2022-08-19T06:57:04;5.43;;;2.65;;
58752;SDS011;44525;46.052;13.610;2022-08-19T06:59:31;3.17;;;2.20;;
58752;SDS011;44525;46.052;13.610;2022-08-19T07:01:59;8.35;;;2.58;;
58752;SDS011;44525;46.052;13.610;2022-08-19T07:04:29;7.32;;;2.30;;
58752;SDS011;44525;46.052;13.610;2022-08-19T07:07:01;5.75;;;2.55;;
58752;SDS011;44525;46.052;13.610;2022-08-19T07:09:34;3.08;;;1.95;;
58752;SDS011;44525;46.052;13.610;2022-08-19T07:12:03;5.45;;;2.22;;
58752;SDS011;44525;46.052;13.610;2022-08-19T07:14:31;5.10;;;2.28;;
58752;SDS011;44525;46.052;13.610;2022-08-19T07:17:01;4.35;;;1.88;;
58752;SDS011;44525;46.052;13.610;2022-08-19T07:19:28;3.50;;;2.17;;
58752;SDS011;44525;46.052;13.610;2022-08-19T07:21:55;6.43;;;2.58;;
58752;SDS011;44525;46.052;13.610;2022-08-19T07:24:22;5.53;;;2.60;;
58752;SDS011;44525;46.052;13.610;2022-08-19T07:26:49;6.22;;;2.38;;
58752;SDS011;44525;46.052;13.610;2022-08-19T07:29:17;4.25;;;2.30;;
58752;SDS011;44525;46.052;13.610;2022-08-19T07:31:44;8.07;;;2.33;;
58752;SDS011;44525;46.052;13.610;2022-08-19T07:34:11;3.08;;;2.17;;
58752;SDS011;44525;46.052;13.610;2022-08-19T07:36:38;5.93;;;2.50;;
58752;SDS011;44525;46.052;13.610;2022-08-19T07:39:14;6.25;;;2.45;;
58752;SDS011;44525;46.052;13.610;2022-08-19T07:41:43;4.30;;;2.22;;
58752;SDS011;44525;46.052;13.610;2022-08-19T07:44:10;4.93;;;2.33;;
58752;SDS011;44525;46.052;13.610;2022-08-19T07:46:39;4.65;;;2.25;;
58752;SDS011;44525;46.052;13.610;2022-08-19T07:49:09;7.40;;;2.35;;
58752;SDS011;44525;46.052;13.610;2022-08-19T07:51:42;6.87;;;2.23;;
58752;SDS011;44525;46.052;13.610;2022-08-19T07:54:10;2.60;;;2.08;;
58752;SDS011;44525;46.052;13.610;2022-08-19T07:56:36;5.07;;;2.58;;
58752;SDS011;44525;46.052;13.610;2022-08-19T07:59:02;3.35;;;2.35;;
58752;SDS011;44525;46.052;13.610;2022-08-19T08:01:28;3.50;;;2.13;;
58752;SDS011;44525;46.052;13.610;2022-08-19T08:03:55;6.68;;;2.33;;
58752;SDS011;44525;46.052;13.610;2022-08-19T08:06:40;3.53;;;2.17;;
58752;SDS011;44525;46.052;13.610;2022-08-19T08:09:27;6.03;;;2.47;;
58752;SDS011;44525;46.052;13.610;2022-08-19T08:12:03;3.63;;;2.45;;
58752;SDS011;44525;46.052;13.610;2022-08-19T08:14:52;3.20;;;1.95;;
58752;SDS011;44525;46.052;13.610;2022-08-19T08:17:19;5.65;;;2.33;;
58752;SDS011;44525;46.052;13.610;2022-08-19T08:19:47;4.38;;;2.30;;
58752;SDS011;44525;46.052;13.610;2022-08-19T08:22:15;4.75;;;2.53;;
58752;SDS011;44525;46.052;13.610;2022-08-19T08:25:10;4.07;;;2.15;;
58752;SDS011;44525;46.052;13.610;2022-08-19T08:27:42;4.07;;;2.15;;
58752;SDS011;44525;46.052;13.610;2022-08-19T08:30:10;2.83;;;2.00;;
58752;SDS011;44525;46.052;13.610;2022-08-19T08:32:41;3.17;;;2.40;;
58752;SDS011;44525;46.052;13.610;2022-08-19T08:35:09;4.32;;;2.28;;
58752;SDS011;44525;46.052;13.610;2022-08-19T08:37:37;3.75;;;2.40;;
58752;SDS011;44525;46.052;13.610;2022-08-19T08:40:07;3.80;;;2.15;;
58752;SDS011;44525;46.052;13.610;2022-08-19T08:42:55;8.20;;;2.78;;
58752;SDS011;44525;46.052;13.610;2022-08-19T08:45:27;8.38;;;3.50;;
58752;SDS011;44525;46.052;13.610;2022-08-19T08:47:54;8.93;;;2.90;;
58752;SDS011;44525;46.052;13.610;2022-08-19T08:50:25;18.63;;;4.13;;
58752;SDS011;44525;46.052;13.610;2022-08-19T08:52:57;8.85;;;3.35;;
58752;SDS011;44525;46.052;13.610;2022-08-19T08:55:25;5.40;;;2.80;;
58752;SDS011;44525;46.052;13.610;2022-08-19T08:57:55;5.38;;;2.88;;
58752;SDS011;44525;46.052;13.610;2022-08-19T09:00:28;7.03;;;3.47;;
58752;SDS011;44525;46.052;13.610;2022-08-19T09:02:57;6.75;;;3.38;;
58752;SDS011;44525;46.052;13.610;2022-08-19T09:05:26;3.42;;;2.40;;
58752;SDS011;44525;46.052;13.610;2022-08-19T09:11:10;8.48;;;3.67;;
58752;SDS011;44525;46.052;13.610;2022-08-19T09:16:34;5.72;;;2.95;;
58752;SDS011;44525;46.052;13.610;2022-08-19T09:19:02;6.53;;;3.00;;
58752;SDS011;44525;46.052;13.610;2022-08-19T09:21:30;9.57;;;3.58;;
58752;SDS011;44525;46.052;13.610;2022-08-19T09:23:56;5.07;;;3.00;;
58752;SDS011;44525;46.052;13.610;2022-08-19T09:26:23;7.63;;;3.30;;
58752;SDS011;44525;46.052;13.610;2022-08-19T09:28:50;4.78;;;3.05;;
58752;SDS011;44525;46.052;13.610;2022-08-19T09:31:21;7.13;;;2.80;;
58752;SDS011;44525;46.052;13.610;2022-08-19T09:33:49;7.07;;;3.17;;
58752;SDS011;44525;46.052;13.610;2022-08-19T09:36:15;4.00;;;2.88;;
58752;SDS011;44525;46.052;13.610;2022-08-19T09:38:43;5.18;;;2.53;;
58752;SDS011;44525;46.052;13.610;2022-08-19T09:41:16;7.63;;;3.00;;
58752;SDS011;44525;46.052;13.610;2022-08-19T09:46:10;4.10;;;2.78;;
58752;SDS011;44525;46.052;13.610;2022-08-19T09:48:36;8.32;;;3.08;;
58752;SDS011;44525;46.052;13.610;2022-08-19T09:51:06;6.05;;;2.50;;
58752;SDS011;44525;46.052;13.610;2022-08-19T09:53:40;7.35;;;2.83;;
58752;SDS011;44525;46.052;13.610;2022-08-19T09:56:05;6.80;;;2.75;;
58752;SDS011;44525;46.052;13.610;2022-08-19T09:58:32;4.88;;;2.90;;
58752;SDS011;44525;46.052;13.610;2022-08-19T10:00:58;8.13;;;3.80;;
58752;SDS011;44525;46.052;13.610;2022-08-19T10:03:26;9.57;;;3.75;;
58752;SDS011;44525;46.052;13.610;2022-08-19T10:05:53;8.27;;;3.20;;
58752;SDS011;44525;46.052;13.610;2022-08-19T10:08:21;5.53;;;3.05;;
58752;SDS011;44525;46.052;13.610;2022-08-19T10:10:48;7.35;;;3.22;;
58752;SDS011;44525;46.052;13.610;2022-08-19T10:13:16;7.22;;;3.20;;
58752;SDS011;44525;46.052;13.610;2022-08-19T10:15:43;8.95;;;3.20;;
58752;SDS011;44525;46.052;13.610;2022-08-19T10:18:09;5.75;;;2.95;;
58752;SDS011;44525;46.052;13.610;2022-08-19T10:20:35;5.30;;;3.00;;
58752;SDS011;44525;46.052;13.610;2022-08-19T10:23:01;7.13;;;2.90;;
58752;SDS011;44525;46.052;13.610;2022-08-19T10:25:28;6.88;;;3.15;;
58752;SDS011;44525;46.052;13.610;2022-08-19T10:27:53;6.30;;;3.10;;
58752;SDS011;44525;46.052;13.610;2022-08-19T10:30:19;5.85;;;3.17;;
58752;SDS011;44525;46.052;13.610;2022-08-19T10:32:45;6.10;;;2.55;;
58752;SDS011;44525;46.052;13.610;2022-08-19T10:35:11;5.88;;;2.72;;
58752;SDS011;44525;46.052;13.610;2022-08-19T10:37:38;6.65;;;2.60;;
58752;SDS011;44525;46.052;13.610;2022-08-19T10:40:05;6.47;;;2.90;;
58752;SDS011;44525;46.052;13.610;2022-08-19T10:42:33;5.93;;;2.83;;
58752;SDS011;44525;46.052;13.610;2022-08-19T10:44:59;4.45;;;2.92;;
58752;SDS011;44525;46.052;13.610;2022-08-19T10:47:25;5.75;;;2.47;;
58752;SDS011;44525;46.052;13.610;2022-08-19T10:49:50;8.25;;;3.55;;
58752;SDS011;44525;46.052;13.610;2022-08-19T10:52:36;7.43;;;3.30;;
58752;SDS011;44525;46.052;13.610;2022-08-19T10:55:02;9.15;;;3.20;;
58752;SDS011;44525;46.052;13.610;2022-08-19T10:57:48;7.45;;;3.38;;
58752;SDS011;44525;46.052;13.610;2022-08-19T11:00:14;5.28;;;2.88;;
58752;SDS011;44525;46.052;13.610;2022-08-19T11:02:40;4.55;;;2.88;;
58752;SDS011;44525;46.052;13.610;2022-08-19T11:05:07;5.30;;;3.17;;
58752;SDS011;44525;46.052;13.610;2022-08-19T11:07:36;6.32;;;2.83;;
58752;SDS011;44525;46.052;13.610;2022-08-19T11:10:05;7.78;;;3.10;;
58752;SDS011;44525;46.052;13.610;2022-08-19T11:12:38;7.13;;;3.20;;
58752;SDS011;44525;46.052;13.610;2022-08-19T11:15:06;5.47;;;2.92;;
58752;SDS011;44525;46.052;13.610;2022-08-19T11:17:33;5.85;;;3.30;;
58752;SDS011;44525;46.052;13.610;2022-08-19T11:20:00;6.03;;;3.03;;
58752;SDS011;44525;46.052;13.610;2022-08-19T11:22:29;5.63;;;2.90;;
58752;SDS011;44525;46.052;13.610;2022-08-19T11:24:54;6.15;;;3.40;;
58752;SDS011;44525;46.052;13.610;2022-08-19T11:27:20;7.25;;;3.28;;
58752;SDS011;44525;46.052;13.610;2022-08-19T11:29:46;5.30;;;2.90;;
58752;SDS011;44525;46.052;13.610;2022-08-19T11:32:11;5.60;;;3.00;;
58752;SDS011;44525;46.052;13.610;2022-08-19T11:34:37;7.50;;;3.28;;
58752;SDS011;44525;46.052;13.610;2022-08-19T11:37:04;8.20;;;3.20;;
58752;SDS011;44525;46.052;13.610;2022-08-19T11:39:31;5.55;;;3.10;;
58752;SDS011;44525;46.052;13.610;2022-08-19T11:41:58;8.25;;;4.05;;
58752;SDS011;44525;46.052;13.610;2022-08-19T11:44:25;11.07;;;4.15;;
58752;SDS011;44525;46.052;13.610;2022-08-19T11:46:51;11.65;;;3.67;;
58752;SDS011;44525;46.052;13.610;2022-08-19T11:49:17;8.88;;;3.90;;
58752;SDS011;44525;46.052;13.610;2022-08-19T11:51:44;7.45;;;3.58;;
58752;SDS011;44525;46.052;13.610;2022-08-19T11:54:11;7.03;;;3.65;;
58752;SDS011;44525;46.052;13.610;2022-08-19T11:56:38;9.13;;;3.97;;
58752;SDS011;44525;46.052;13.610;2022-08-19T11:59:04;9.27;;;4.57;;
58752;SDS011;44525;46.052;13.610;2022-08-19T12:01:30;9.40;;;3.80;;
58752;SDS011;44525;46.052;13.610;2022-08-19T12:03:56;10.43;;;4.40;;
58752;SDS011;44525;46.052;13.610;2022-08-19T12:06:26;9.00;;;4.30;;
58752;SDS011;44525;46.052;13.610;2022-08-19T12:08:54;11.70;;;4.03;;
58752;SDS011;44525;46.052;13.610;2022-08-19T12:11:21;9.05;;;4.30;;
58752;SDS011;44525;46.052;13.610;2022-08-19T12:13:47;12.23;;;5.00;;
58752;SDS011;44525;46.052;13.610;2022-08-19T12:16:20;9.55;;;4.18;;
58752;SDS011;44525;46.052;13.610;2022-08-19T12:18:48;7.10;;;3.58;;
58752;SDS011;44525;46.052;13.610;2022-08-19T12:21:17;5.55;;;3.30;;
58752;SDS011;44525;46.052;13.610;2022-08-19T12:23:46;8.35;;;3.53;;
58752;SDS011;44525;46.052;13.610;2022-08-19T12:26:13;7.10;;;3.67;;
58752;SDS011;44525;46.052;13.610;2022-08-19T12:28:38;8.20;;;3.33;;
58752;SDS011;44525;46.052;13.610;2022-08-19T12:31:04;6.65;;;3.50;;
58752;SDS011;44525;46.052;13.610;2022-08-19T12:33:30;6.75;;;3.35;;
58752;SDS011;44525;46.052;13.610;2022-08-19T12:36:00;8.50;;;3.60;;
58752;SDS011;44525;46.052;13.610;2022-08-19T12:38:29;9.95;;;3.58;;
58752;SDS011;44525;46.052;13.610;2022-08-19T12:40:54;6.97;;;3.28;;
58752;SDS011;44525;46.052;13.610;2022-08-19T12:43:20;6.25;;;3.30;;
58752;SDS011;44525;46.052;13.610;2022-08-19T12:45:46;9.23;;;3.45;;
58752;SDS011;44525;46.052;13.610;2022-08-19T12:48:12;6.75;;;3.35;;
58752;SDS011;44525;46.052;13.610;2022-08-19T12:50:39;5.00;;;2.90;;
58752;SDS011;44525;46.052;13.610;2022-08-19T12:53:06;7.40;;;3.17;;
58752;SDS011;44525;46.052;13.610;2022-08-19T12:55:31;7.43;;;3.53;;
58752;SDS011;44525;46.052;13.610;2022-08-19T12:57:57;8.68;;;3.33;;
58752;SDS011;44525;46.052;13.610;2022-08-19T13:00:23;5.18;;;3.33;;
58752;SDS011;44525;46.052;13.610;2022-08-19T13:02:49;7.28;;;3.30;;
58752;SDS011;44525;46.052;13.610;2022-08-19T13:05:18;4.88;;;3.13;;
58752;SDS011;44525;46.052;13.610;2022-08-19T13:07:47;7.40;;;3.15;;
58752;SDS011;44525;46.052;13.610;2022-08-19T13:10:14;7.28;;;3.40;;
58752;SDS011;44525;46.052;13.610;2022-08-19T13:12:42;6.07;;;2.83;;
58752;SDS011;44525;46.052;13.610;2022-08-19T13:15:09;7.20;;;3.10;;
58752;SDS011;44525;46.052;13.610;2022-08-19T13:17:35;7.72;;;3.50;;
58752;SDS011;44525;46.052;13.610;2022-08-19T13:20:02;7.60;;;3.20;;
58752;SDS011;44525;46.052;13.610;2022-08-19T13:22:28;6.05;;;3.00;;
58752;SDS011;44525;46.052;13.610;2022-08-19T13:24:54;6.07;;;3.28;;
58752;SDS011;44525;46.052;13.610;2022-08-19T13:27:19;6.55;;;3.33;;
58752;SDS011;44525;46.052;13.610;2022-08-19T13:29:45;6.15;;;2.95;;
58752;SDS011;44525;46.052;13.610;2022-08-19T13:32:29;5.07;;;2.97;;
58752;SDS011;44525;46.052;13.610;2022-08-19T13:35:14;7.05;;;3.10;;
58752;SDS011;44525;46.052;13.610;2022-08-19T13:37:42;5.40;;;2.90;;
58752;SDS011;44525;46.052;13.610;2022-08-19T13:40:09;6.57;;;3.33;;
58752;SDS011;44525;46.052;13.610;2022-08-19T13:42:38;7.78;;;3.50;;
58752;SDS011;44525;46.052;13.610;2022-08-19T13:45:05;6.28;;;3.40;;
58752;SDS011;44525;46.052;13.610;2022-08-19T13:47:32;8.40;;;3.85;;
58752;SDS011;44525;46.052;13.610;2022-08-19T13:49:59;6.38;;;3.15;;
58752;SDS011;44525;46.052;13.610;2022-08-19T13:52:29;10.25;;;3.90;;
58752;SDS011;44525;46.052;13.610;2022-08-19T13:54:55;8.88;;;3.47;;
58752;SDS011;44525;46.052;13.610;2022-08-19T13:57:21;8.23;;;3.47;;
58752;SDS011;44525;46.052;13.610;2022-08-19T13:59:48;5.95;;;3.50;;
58752;SDS011;44525;46.052;13.610;2022-08-19T14:02:13;6.57;;;3.10;;
58752;SDS011;44525;46.052;13.610;2022-08-19T14:04:39;8.02;;;3.70;;
58752;SDS011;44525;46.052;13.610;2022-08-19T14:07:05;7.65;;;3.75;;
58752;SDS011;44525;46.052;13.610;2022-08-19T14:09:30;5.05;;;3.25;;
58752;SDS011;44525;46.052;13.610;2022-08-19T14:11:56;7.32;;;3.53;;
58752;SDS011;44525;46.052;13.610;2022-08-19T14:14:22;5.85;;;3.05;;
58752;SDS011;44525;46.052;13.610;2022-08-19T14:16:48;8.80;;;3.42;;
58752;SDS011;44525;46.052;13.610;2022-08-19T14:19:14;6.60;;;3.92;;
58752;SDS011;44525;46.052;13.610;2022-08-19T14:21:39;11.10;;;3.78;;
58752;SDS011;44525;46.052;13.610;2022-08-19T14:24:06;7.70;;;3.53;;
58752;SDS011;44525;46.052;13.610;2022-08-19T14:26:32;7.35;;;3.95;;
58752;SDS011;44525;46.052;13.610;2022-08-19T14:28:58;9.48;;;3.33;;
58752;SDS011;44525;46.052;13.610;2022-08-19T14:31:24;6.97;;;3.80;;
58752;SDS011;44525;46.052;13.610;2022-08-19T14:33:51;6.82;;;3.45;;
58752;SDS011;44525;46.052;13.610;2022-08-19T14:36:17;11.75;;;3.95;;
58752;SDS011;44525;46.052;13.610;2022-08-19T14:38:45;8.63;;;3.80;;
58752;SDS011;44525;46.052;13.610;2022-08-19T14:43:44;9.73;;;3.88;;
58752;SDS011;44525;46.052;13.610;2022-08-19T14:46:15;9.73;;;3.80;;
58752;SDS011;44525;46.052;13.610;2022-08-19T14:48:42;9.30;;;3.58;;